Time;durP1;ratioP1;P1;durP2;ratioP2;P2;SDS_P1;SDS_P2;PMS_P1;PMS_P2;Temp;Humidity;BMP_temperature;BMP_pressure;BME280_temperature;BME280_humidity;BME280_pressure;Samples;Min_cycle;Max_cycle;Signal;HPM_P1;HPM_P2
2022/08/18 00:02:12;;;;;;;6.63;5.80;;;;;;;21.51;69.82;100730.19;4961004;28;20428;-79
2022/08/18 00:04:38;;;;;;;5.97;5.47;;;;;;;21.41;70.51;100721.69;4960295;29;20483;-79
2022/08/18 00:07:05;;;;;;;8.43;6.30;;;;;;;21.41;71.06;100731.47;4960645;28;20699;-79
2022/08/18 00:09:33;;;;;;;6.87;6.30;;;;;;;21.52;70.83;100722.16;4960562;28;20173;-79
2022/08/18 00:12:00;;;;;;;6.67;6.17;;;;;;;21.41;70.67;100728.81;4960611;28;20491;-80
2022/08/18 00:14:26;;;;;;;6.87;6.27;;;;;;;21.76;70.38;100735.50;4961433;28;20415;-79
2022/08/18 00:16:52;;;;;;;7.30;6.70;;;;;;;21.36;71.85;100729.84;4960018;28;20846;-81
2022/08/18 00:19:17;;;;;;;7.50;7.00;;;;;;;21.67;69.94;100717.25;4960350;28;20177;-79
2022/08/18 00:21:43;;;;;;;7.40;6.80;;;;;;;21.40;71.77;100729.72;4960271;29;20553;-80
2022/08/18 00:24:08;;;;;;;7.70;7.00;;;;;;;21.35;71.37;100729.88;4960152;28;20204;-80
2022/08/18 00:26:34;;;;;;;7.27;6.60;;;;;;;21.35;71.20;100725.44;4959678;28;20256;-79
2022/08/18 00:28:59;;;;;;;7.93;7.23;;;;;;;21.23;72.47;100717.03;4959977;28;20177;-79
2022/08/18 00:31:25;;;;;;;7.80;7.20;;;;;;;21.41;72.36;100716.41;4959812;28;20236;-78
2022/08/18 00:33:51;;;;;;;8.20;7.50;;;;;;;21.52;71.42;100719.50;4959671;28;20176;-79
2022/08/18 00:36:16;;;;;;;8.03;7.23;;;;;;;21.36;72.42;100726.28;4959826;28;20413;-79
2022/08/18 00:38:41;;;;;;;8.83;8.13;;;;;;;21.74;71.75;100717.91;4959562;28;20272;-79
2022/08/18 00:41:07;;;;;;;8.33;7.60;;;;;;;21.61;71.87;100720.13;4959724;28;20215;-79
2022/08/18 00:43:43;;;;;;;8.50;7.80;;;;;;;21.48;72.01;100717.91;4959909;29;20192;-78
2022/08/18 00:46:14;;;;;;;8.80;8.10;;;;;;;20.94;74.13;100721.56;4959399;28;20447;-78
2022/08/18 00:48:40;;;;;;;9.40;8.60;;;;;;;21.36;73.58;100713.03;4958912;28;20412;-78
2022/08/18 00:51:17;;;;;;;9.07;8.37;;;;;;;21.90;70.82;100713.75;4959717;28;20391;-80
2022/08/18 00:53:50;;;;;;;9.50;8.77;;;;;;;21.95;70.30;100705.63;4959821;29;20184;-81
2022/08/18 00:56:21;;;;;;;9.77;8.97;;;;;;;21.48;72.30;100711.75;4942960;29;20407;-80
2022/08/18 00:58:52;;;;;;;9.77;8.97;;;;;;;21.78;72.20;100708.91;4959060;28;20709;-80
2022/08/18 01:01:22;;;;;;;10.67;9.87;;;;;;;21.75;71.72;100717.00;4960352;28;20880;-81
2022/08/18 01:03:51;;;;;;;10.70;9.90;;;;;;;21.31;73.71;100720.28;4946385;29;20467;-81
2022/08/18 01:06:31;;;;;;;10.90;9.90;;;;;;;22.00;71.59;100715.13;4962310;28;20444;-81
2022/08/18 01:08:56;;;;;;;11.63;10.63;;;;;;;21.86;71.36;100720.94;4962933;28;20427;-81
2022/08/18 01:11:23;;;;;;;11.00;9.90;;;;;;;22.01;71.03;100718.63;4963213;28;20425;-80
2022/08/18 01:13:48;;;;;;;11.63;10.63;;;;;;;21.83;71.40;100723.72;4963457;28;20566;-80
2022/08/18 01:21:49;;;;;;;13.30;12.20;;;;;;;21.56;73.54;100703.53;4963970;28;20828;-81
2022/08/18 01:24:15;;;;;;;12.80;11.70;;;;;;;21.79;72.54;100703.53;4947078;28;20471;-81
2022/08/18 01:26:48;;;;;;;12.83;11.40;;;;;;;21.44;74.41;100704.81;4962913;28;20383;-80
2022/08/18 01:29:14;;;;;;;12.93;11.93;;;;;;;21.15;74.88;100712.88;4963707;28;20416;-81
2022/08/18 01:31:45;;;;;;;13.10;12.13;;;;;;;22.06;72.12;100708.72;4947047;29;20428;-81
2022/08/18 01:34:11;;;;;;;14.07;12.87;;;;;;;22.03;72.04;100704.38;4963647;28;20173;-80
2022/08/18 01:36:39;;;;;;;14.80;13.60;;;;;;;21.75;72.07;100709.03;4963596;28;20666;-79
2022/08/18 01:39:10;;;;;;;13.47;12.47;;;;;;;22.12;71.49;100708.50;4964014;28;20173;-80
2022/08/18 01:41:35;;;;;;;13.50;12.40;;;;;;;21.75;71.57;100709.88;4963458;28;20420;-80
2022/08/18 01:44:02;;;;;;;14.23;13.13;;;;;;;22.47;69.99;100700.91;4963428;28;20478;-79
2022/08/18 01:46:31;;;;;;;13.87;12.80;;;;;;;21.41;73.34;100703.13;4963985;28;20277;-79
2022/08/18 01:49:00;;;;;;;15.73;14.43;;;;;;;21.96;72.36;100704.66;4963391;28;20412;-78
2022/08/18 01:51:28;;;;;;;15.70;14.33;;;;;;;22.04;72.99;100703.47;4963703;28;20468;-80
2022/08/18 01:53:54;;;;;;;14.37;13.27;;;;;;;22.42;71.38;100697.59;4947142;29;20810;-78
2022/08/18 01:56:20;;;;;;;14.83;13.40;;;;;;;22.54;69.93;100705.06;4963216;28;20450;-78
2022/08/18 01:58:46;;;;;;;14.97;13.77;;;;;;;22.33;70.86;100705.91;4946759;29;20480;-77
2022/08/18 02:01:13;;;;;;;15.83;14.30;;;;;;;22.14;70.35;100709.28;4963028;28;20256;-78
2022/08/18 02:03:43;;;;;;;14.60;13.30;;;;;;;22.36;70.45;100705.81;4962886;28;20472;-80
2022/08/18 02:06:10;;;;;;;15.40;14.20;;;;;;;22.64;69.62;100704.69;4962676;28;20475;-80
2022/08/18 02:08:37;;;;;;;16.00;14.47;;;;;;;22.64;69.71;100705.53;4946407;29;20464;-80
2022/08/18 02:11:03;;;;;;;14.97;13.87;;;;;;;22.75;69.26;100701.59;4962340;28;20464;-78
2022/08/18 02:13:29;;;;;;;14.87;13.77;;;;;;;22.97;67.99;100698.88;4963011;28;20451;-80
2022/08/18 02:15:54;;;;;;;16.27;14.97;;;;;;;22.66;68.84;100700.16;4962878;28;20464;-81
2022/08/18 02:18:26;;;;;;;16.50;15.30;;;;;;;22.59;69.52;100696.03;4963229;28;20420;-80
2022/08/18 02:20:51;;;;;;;15.83;14.50;;;;;;;22.30;70.00;100700.69;4963404;28;20188;-81
2022/08/18 02:23:17;;;;;;;16.83;15.33;;;;;;;22.77;68.47;100689.97;4967281;28;20453;-80
2022/08/18 02:25:42;;;;;;;16.03;14.83;;;;;;;22.36;69.35;100695.19;4954042;29;20188;-79
2022/08/18 02:28:08;;;;;;;16.13;14.70;;;;;;;21.90;70.54;100696.97;4971037;28;20177;-77
2022/08/18 02:30:36;;;;;;;16.53;14.90;;;;;;;21.81;71.42;100691.09;4969411;29;20165;-78
2022/08/18 02:33:04;;;;;;;16.43;15.13;;;;;;;22.19;69.64;100688.72;4968098;28;20177;-79
2022/08/18 02:35:29;;;;;;;16.93;15.43;;;;;;;21.68;71.33;100697.78;4962976;28;20395;-79
2022/08/18 02:37:58;;;;;;;16.03;14.40;;;;;;;21.76;71.50;100701.00;4962881;28;20435;-79
2022/08/18 02:40:23;;;;;;;16.33;15.00;;;;;;;21.74;71.68;100689.56;4962343;28;20165;-78
2022/08/18 02:42:51;;;;;;;16.30;15.10;;;;;;;21.68;71.28;100692.47;4963029;28;20652;-79
2022/08/18 02:45:17;;;;;;;16.50;15.13;;;;;;;22.01;70.99;100684.13;4962159;28;20235;-79
2022/08/18 02:47:43;;;;;;;16.60;15.30;;;;;;;22.17;69.60;100681.75;4962289;28;20424;-80
2022/08/18 02:50:09;;;;;;;17.13;15.83;;;;;;;22.12;69.32;100684.59;4962776;29;20165;-80
2022/08/18 02:52:34;;;;;;;17.70;16.23;;;;;;;21.46;71.79;100687.94;4962235;28;20431;-79
2022/08/18 02:55:01;;;;;;;18.23;16.50;;;;;;;21.92;70.85;100685.38;4962178;28;20320;-79
2022/08/18 02:57:27;;;;;;;19.17;17.37;;;;;;;22.15;69.44;100687.13;4962620;28;20458;-78
2022/08/18 02:59:53;;;;;;;18.10;16.50;;;;;;;21.93;69.46;100679.13;4962188;28;20452;-78
2022/08/18 03:02:19;;;;;;;17.83;16.20;;;;;;;22.09;70.19;100682.03;4962164;28;20515;-78
2022/08/18 03:04:50;;;;;;;17.30;15.97;;;;;;;22.12;69.43;100686.38;4962366;28;20193;-78
2022/08/18 03:07:16;;;;;;;16.40;15.10;;;;;;;21.83;69.75;100685.72;4962103;28;20421;-79
2022/08/18 03:09:42;;;;;;;17.67;16.00;;;;;;;21.17;71.65;100692.47;4961909;28;20806;-79
2022/08/18 03:12:08;;;;;;;17.00;15.47;;;;;;;21.30;72.17;100692.06;4962512;29;20415;-80
2022/08/18 03:14:34;;;;;;;16.57;15.03;;;;;;;21.94;70.09;100682.66;4961666;28;20169;-79
2022/08/18 03:17:03;;;;;;;16.00;14.60;;;;;;;21.83;70.31;100683.06;4961673;28;20460;-81
2022/08/18 03:19:28;;;;;;;16.77;15.20;;;;;;;21.45;71.51;100696.81;4945700;29;20432;-80
2022/08/18 03:21:57;;;;;;;15.60;14.30;;;;;;;22.02;70.61;100686.72;4961034;28;20817;-81
2022/08/18 03:24:23;;;;;;;15.40;14.20;;;;;;;21.93;69.23;100683.56;4960045;28;20224;-80
2022/08/18 03:26:49;;;;;;;16.83;15.33;;;;;;;22.24;68.50;100690.34;4962015;28;20576;-79
2022/08/18 03:29:14;;;;;;;15.20;14.10;;;;;;;21.69;69.57;100697.72;4961534;28;20177;-80
2022/08/18 03:31:42;;;;;;;16.10;14.80;;;;;;;22.18;68.91;100702.06;4961969;28;20181;-81
2022/08/18 03:34:07;;;;;;;15.80;14.50;;;;;;;21.94;68.89;100709.19;4962173;29;20247;-80
2022/08/18 03:36:34;;;;;;;15.93;14.40;;;;;;;22.14;67.82;100711.09;4944532;29;20471;-79
2022/08/18 03:39:09;;;;;;;15.07;13.77;;;;;;;21.90;69.09;100715.53;4961390;28;20201;-79
2022/08/18 03:41:36;;;;;;;16.53;13.57;;;;;;;21.73;69.99;100703.78;4961346;28;20522;-80
2022/08/18 03:44:02;;;;;;;15.53;14.23;;;;;;;22.13;68.33;100707.53;4961083;28;20442;-80
2022/08/18 03:46:28;;;;;;;14.93;13.73;;;;;;;22.16;68.82;100715.41;4961437;28;20467;-79
2022/08/18 03:48:57;;;;;;;15.00;13.57;;;;;;;22.10;68.67;100709.47;4961083;28;20179;-80
2022/08/18 03:51:25;;;;;;;15.97;14.60;;;;;;;22.13;68.56;100720.81;4960936;28;20180;-80
2022/08/18 03:53:53;;;;;;;15.23;13.83;;;;;;;21.68;69.80;100714.56;4945076;29;20439;-81
2022/08/18 03:56:24;;;;;;;15.13;13.83;;;;;;;21.87;69.28;100727.13;4944288;29;20473;-79
2022/08/18 03:59:01;;;;;;;14.73;13.63;;;;;;;21.90;69.37;100727.00;4961060;28;20787;-79
2022/08/18 04:01:31;;;;;;;14.60;13.10;;;;;;;21.98;68.52;100718.75;4960947;28;20411;-79
2022/08/18 04:04:00;;;;;;;16.10;14.40;;;;;;;22.14;69.35;100719.91;4961171;28;20467;-79
2022/08/18 04:06:29;;;;;;;16.27;14.87;;;;;;;22.10;68.66;100722.75;4961314;28;20406;-80
2022/08/18 04:08:57;;;;;;;14.37;13.20;;;;;;;22.32;68.10;100720.09;4961187;28;20413;-80
2022/08/18 04:11:22;;;;;;;15.13;13.70;;;;;;;22.41;67.62;100710.91;4961620;28;20412;-80
2022/08/18 04:13:48;;;;;;;14.73;13.47;;;;;;;22.31;68.53;100713.94;4961239;28;20420;-81
2022/08/18 04:16:14;;;;;;;16.00;14.50;;;;;;;22.42;67.79;100710.88;4960273;28;20606;-81
2022/08/18 04:18:39;;;;;;;16.27;14.80;;;;;;;22.32;67.48;100705.03;4961088;29;20412;-81
2022/08/18 04:21:07;;;;;;;16.80;15.40;;;;;;;22.83;66.71;100708.28;4943729;28;20550;-82
2022/08/18 04:23:37;;;;;;;16.47;14.97;;;;;;;22.69;66.49;100708.00;4960605;28;20232;-80
2022/08/18 04:26:04;;;;;;;16.83;15.33;;;;;;;22.68;67.21;100707.16;4961050;29;20404;-80
2022/08/18 04:28:29;;;;;;;16.80;15.37;;;;;;;23.07;66.17;100713.50;4960473;28;20425;-81
2022/08/18 04:30:58;;;;;;;18.00;16.40;;;;;;;23.07;66.49;100721.50;4960648;28;20420;-78
2022/08/18 04:33:27;;;;;;;16.90;15.57;;;;;;;22.90;67.57;100716.03;4960824;29;20189;-79
2022/08/18 04:35:54;;;;;;;13.50;12.20;;;;;;;24.70;64.06;100696.28;4959892;28;20824;-67
2022/08/18 04:38:20;;;;;;;12.60;11.60;;;;;;;25.44;60.38;100695.19;4959080;28;20451;-66
2022/08/18 04:40:46;;;;;;;12.77;11.70;;;;;;;25.65;58.93;100694.97;4960524;28;20423;-67
2022/08/18 04:43:14;;;;;;;12.30;11.40;;;;;;;25.86;57.56;100693.78;4959870;29;20710;-67
2022/08/18 04:45:44;;;;;;;13.03;12.00;;;;;;;25.04;59.32;100700.75;4927584;29;20173;-66
2022/08/18 04:48:11;;;;;;;12.53;11.40;;;;;;;25.88;57.20;100699.91;4960167;29;20749;-67
2022/08/18 04:50:38;;;;;;;11.97;10.87;;;;;;;25.30;57.99;100701.22;4959771;28;20436;-67
2022/08/18 04:55:52;;;;;;;11.33;10.43;;;;;;;26.49;54.99;100700.06;4959599;29;20897;-67
2022/08/18 04:58:19;;;;;;;12.27;11.27;;;;;;;25.82;56.91;100710.91;4959828;28;20496;-67
2022/08/18 05:00:45;;;;;;;11.90;10.87;;;;;;;26.49;54.72;100707.22;4959887;29;20413;-67
2022/08/18 05:03:11;;;;;;;11.10;10.03;;;;;;;26.79;53.84;100706.41;4943054;28;20464;-67
2022/08/18 05:05:37;;;;;;;12.07;10.97;;;;;;;25.79;56.81;100710.22;4959950;28;20428;-67
2022/08/18 05:08:03;;;;;;;11.97;11.07;;;;;;;26.43;54.62;100704.94;4959559;28;20425;-68
2022/08/18 05:10:28;;;;;;;12.53;11.33;;;;;;;26.34;54.65;100704.47;4959624;29;20181;-66
2022/08/18 05:12:54;;;;;;;11.77;10.60;;;;;;;26.68;53.89;100704.34;4959992;29;20461;-66
2022/08/18 05:15:20;;;;;;;11.17;10.27;;;;;;;26.54;53.72;100708.69;4959515;28;20216;-65
2022/08/18 05:17:45;;;;;;;12.07;11.00;;;;;;;26.16;55.13;100708.22;4959564;29;20551;-66
2022/08/18 05:20:11;;;;;;;11.40;10.40;;;;;;;26.49;54.04;100708.06;4960072;29;20169;-65
2022/08/18 05:22:42;;;;;;;10.77;9.77;;;;;;;26.70;53.83;100711.34;4959308;29;20530;-66
2022/08/18 05:25:09;;;;;;;11.27;10.17;;;;;;;26.81;52.95;100718.75;4959487;29;20205;-67
2022/08/18 05:27:36;;;;;;;11.30;10.13;;;;;;;26.86;52.97;100719.34;4959859;29;20413;-67
2022/08/18 05:30:03;;;;;;;13.63;10.53;;;;;;;26.35;54.45;100726.75;4959545;28;20891;-66
2022/08/18 05:32:32;;;;;;;13.00;11.90;;;;;;;25.10;58.49;100731.59;4959420;28;20841;-67
2022/08/18 05:35:03;;;;;;;11.97;10.97;;;;;;;24.83;59.78;100729.41;4959688;29;20416;-67
2022/08/18 05:37:44;;;;;;;13.03;12.03;;;;;;;24.65;60.97;100731.19;4959538;28;20515;-67
2022/08/18 05:40:09;;;;;;;12.63;11.60;;;;;;;25.17;59.28;100738.34;4959400;28;20443;-68
2022/08/18 05:42:37;;;;;;;13.03;11.70;;;;;;;25.05;59.62;100741.66;4959333;28;20718;-66
2022/08/18 05:45:05;;;;;;;13.83;12.60;;;;;;;24.66;60.46;100730.22;4942527;29;20201;-67
2022/08/18 05:47:31;;;;;;;11.07;10.17;;;;;;;25.37;59.18;100725.78;4944476;29;20523;-67
2022/08/18 05:50:09;;;;;;;13.27;12.30;;;;;;;24.94;59.99;100727.97;4962804;29;20764;-67
2022/08/18 05:52:42;;;;;;;13.23;11.70;;;;;;;25.11;60.17;100725.31;4945783;29;20177;-72
2022/08/18 05:58:49;;;;;;;14.93;13.53;;;;;;;24.66;61.98;100735.56;4962565;28;20462;-70
2022/08/18 06:01:19;;;;;;;14.80;13.53;;;;;;;24.21;63.22;100727.03;4962713;28;20429;-72
2022/08/18 06:03:48;;;;;;;15.27;14.07;;;;;;;24.48;62.15;100731.13;4962364;28;20740;-72
2022/08/18 06:06:19;;;;;;;15.70;14.30;;;;;;;24.80;61.80;100732.22;4962468;29;20423;-73
2022/08/18 06:09:16;;;;;;;16.30;15.00;;;;;;;24.68;62.31;100724.81;4962575;29;20467;-73
2022/08/18 06:11:42;;;;;;;15.33;14.03;;;;;;;24.54;62.90;100736.13;4961543;28;20726;-71
2022/08/18 06:14:07;;;;;;;15.93;14.30;;;;;;;24.47;63.18;100732.06;4962461;29;20515;-72
2022/08/18 06:17:04;;;;;;;15.63;14.23;;;;;;;25.11;60.67;100724.47;4962137;28;20231;-72
2022/08/18 06:19:57;;;;;;;16.70;15.23;;;;;;;25.32;59.78;100728.69;4962426;29;20251;-69
2022/08/18 06:22:35;;;;;;;13.83;12.73;;;;;;;26.43;57.06;100718.28;4961597;28;20690;-71
2022/08/18 06:25:21;;;;;;;14.63;13.53;;;;;;;26.16;56.37;100730.44;4962117;29;20478;-71
2022/08/18 06:28:09;;;;;;;14.67;13.30;;;;;;;25.84;57.16;100741.09;4961561;28;20876;-70
2022/08/18 06:30:46;;;;;;;16.83;15.47;;;;;;;25.49;58.26;100746.50;4961555;28;20447;-70
2022/08/18 06:33:34;;;;;;;17.33;16.00;;;;;;;24.74;60.72;100758.34;4961460;29;20810;-73
2022/08/18 06:36:20;;;;;;;17.27;15.83;;;;;;;25.89;57.85;100756.84;4961414;28;20676;-72
2022/08/18 06:39:01;;;;;;;19.53;17.90;;;;;;;25.82;57.39;100755.47;4961249;28;20508;-71
2022/08/18 06:41:41;;;;;;;20.17;18.10;;;;;;;25.22;59.26;100760.31;4945229;29;20421;-70
2022/08/18 06:44:22;;;;;;;21.87;20.00;;;;;;;24.52;62.60;100765.53;4961208;28;20717;-70
2022/08/18 06:47:03;;;;;;;26.20;23.90;;;;;;;24.41;62.98;100773.19;4961618;29;20429;-69
2022/08/18 06:49:50;;;;;;;27.73;25.00;;;;;;;23.76;65.63;100775.25;4961900;28;20420;-70
2022/08/18 06:52:37;;;;;;;27.83;25.30;;;;;;;23.47;67.03;100783.59;4945307;29;20417;-69
2022/08/18 06:55:12;;;;;;;28.60;25.83;;;;;;;23.51;66.51;100782.53;4961750;29;20826;-70
2022/08/18 06:57:54;;;;;;;32.27;28.13;;;;;;;23.46;67.12;100787.22;4961491;28;20494;-72
2022/08/18 07:00:25;;;;;;;38.57;27.90;;;;;;;23.29;67.66;100784.44;4961356;28;20806;-72
2022/08/18 07:03:06;;;;;;;30.77;26.17;;;;;;;23.39;67.46;100783.09;4944831;29;20416;-72
2022/08/18 07:05:33;;;;;;;32.10;28.20;;;;;;;22.86;69.53;100779.94;4961258;29;20425;-71
2022/08/18 07:08:13;;;;;;;33.00;29.50;;;;;;;23.25;67.96;100780.16;4944430;29;20431;-68
2022/08/18 07:10:50;;;;;;;34.67;30.97;;;;;;;23.45;67.51;100779.28;4944742;29;20416;-70
2022/08/18 07:13:27;;;;;;;34.07;30.00;;;;;;;23.19;68.33;100791.91;4961456;29;20416;-70
2022/08/18 07:15:55;;;;;;;38.00;33.90;;;;;;;22.96;69.17;100790.19;4961089;28;20475;-69
2022/08/18 07:18:27;;;;;;;35.80;31.83;;;;;;;22.95;69.53;100793.75;4961208;28;20419;-70
2022/08/18 07:20:58;;;;;;;35.43;31.60;;;;;;;23.01;69.72;100796.19;4961333;29;20412;-70
2022/08/18 07:23:33;;;;;;;35.07;31.33;;;;;;;22.99;69.49;100803.38;4961112;28;20711;-71
2022/08/18 07:25:59;;;;;;;32.47;29.00;;;;;;;22.88;69.77;100803.81;4961076;28;20427;-71
2022/08/18 07:28:30;;;;;;;31.73;28.33;;;;;;;22.77;69.90;100801.59;4961084;29;20674;-70
2022/08/18 07:31:23;;;;;;;31.87;28.43;;;;;;;22.57;70.78;100805.03;4961038;29;20584;-73
2022/08/18 07:34:13;;;;;;;31.40;27.73;;;;;;;21.81;72.54;100812.28;4961164;28;20669;-70
2022/08/18 07:36:46;;;;;;;34.80;27.80;;;;;;;21.94;73.00;100818.03;4958043;28;20539;-71
2022/08/18 07:39:21;;;;;;;30.53;27.50;;;;;;;22.31;72.41;100817.50;4944602;29;20830;-70
2022/08/18 07:42:03;;;;;;;35.47;31.87;;;;;;;22.37;72.13;100817.28;4944343;29;20431;-70
2022/08/18 07:44:38;;;;;;;30.07;26.90;;;;;;;22.49;71.27;100815.09;4960933;29;20755;-70
2022/08/18 07:47:33;;;;;;;35.90;30.83;;;;;;;22.42;71.86;100817.13;4960742;29;20448;-69
2022/08/18 07:49:58;;;;;;;30.40;27.03;;;;;;;22.06;73.46;100819.38;4960494;29;20429;-70
2022/08/18 07:52:29;;;;;;;31.63;28.43;;;;;;;22.56;71.41;100823.72;4960759;29;20484;-69
2022/08/18 07:54:55;;;;;;;37.70;31.50;;;;;;;22.33;72.33;100833.38;4960792;28;20173;-68
2022/08/18 07:57:28;;;;;;;40.17;31.87;;;;;;;22.81;71.11;100823.56;4961070;28;20405;-67
2022/08/18 08:00:03;;;;;;;39.17;31.73;;;;;;;22.17;73.14;100822.47;4943857;29;20269;-68
2022/08/18 08:02:38;;;;;;;46.20;35.07;;;;;;;21.96;74.31;100829.44;4960427;28;20408;-69
2022/08/18 08:05:14;;;;;;;50.67;35.30;;;;;;;22.15;73.59;100833.16;4960550;28;20873;-73
2022/08/18 08:07:53;;;;;;;49.50;34.20;;;;;;;22.14;74.14;100833.22;4960853;29;20416;-73
2022/08/18 08:10:21;;;;;;;50.77;36.13;;;;;;;22.46;72.84;100833.78;4960395;28;20423;-72
2022/08/18 08:13:02;;;;;;;45.67;32.50;;;;;;;22.50;71.92;100833.63;4960507;28;20412;-73
2022/08/18 08:15:42;;;;;;;55.37;39.00;;;;;;;22.95;70.19;100836.31;4943899;29;20440;-73
2022/08/18 08:18:40;;;;;;;47.90;35.33;;;;;;;22.96;70.19;100833.59;4943753;29;20444;-70
2022/08/18 08:21:14;;;;;;;38.97;31.17;;;;;;;23.22;69.95;100834.34;4943788;28;20727;-71
2022/08/18 08:23:54;;;;;;;43.83;33.73;;;;;;;23.48;68.19;100833.25;4943804;29;20817;-73
2022/08/18 08:26:30;;;;;;;39.30;31.27;;;;;;;23.48;68.29;100830.56;4960463;29;20409;-71
2022/08/18 08:29:17;;;;;;;38.10;30.70;;;;;;;24.02;66.28;100820.25;4943941;29;20691;-71
2022/08/18 08:32:03;;;;;;;38.77;30.30;;;;;;;23.94;65.86;100821.56;4960359;28;20404;-71
2022/08/18 08:34:46;;;;;;;34.00;27.90;;;;;;;24.67;63.75;100819.94;4960171;28;20825;-70
2022/08/18 08:37:15;;;;;;;38.83;28.97;;;;;;;24.72;63.82;100822.34;4959764;29;20421;-70
2022/08/18 08:39:49;;;;;;;32.83;28.20;;;;;;;24.47;63.15;100828.84;4960274;28;20511;-70
2022/08/18 08:42:32;;;;;;;31.37;26.20;;;;;;;24.42;64.11;100830.00;4943670;29;20523;-69
2022/08/18 08:45:02;;;;;;;28.57;25.67;;;;;;;24.57;63.32;100823.09;4960066;29;20539;-74
2022/08/18 08:47:33;;;;;;;27.53;24.10;;;;;;;25.74;59.95;100814.63;4960352;29;20841;-74
2022/08/18 08:50:14;;;;;;;26.13;23.43;;;;;;;26.45;57.69;100810.78;4943611;29;20412;-75
2022/08/18 08:52:50;;;;;;;25.03;22.37;;;;;;;25.99;58.51;100807.97;4959567;28;20421;-74
2022/08/18 08:55:24;;;;;;;24.43;21.97;;;;;;;26.20;56.83;100812.16;4943995;29;20837;-74
2022/08/18 08:58:15;;;;;;;24.27;21.87;;;;;;;25.56;59.35;100829.81;4944301;29;20421;-74
2022/08/18 09:00:41;;;;;;;25.80;22.80;;;;;;;25.26;60.35;100821.53;4960064;28;20409;-74
2022/08/18 09:03:38;;;;;;;27.20;24.30;;;;;;;25.20;60.87;100828.03;4943311;29;20825;-72
2022/08/18 09:06:54;;;;;;;26.80;24.10;;;;;;;24.86;61.73;100829.72;4943303;29;20501;-72
2022/08/18 09:09:50;;;;;;;27.70;24.70;;;;;;;24.97;61.70;100822.03;4943323;29;20425;-71
2022/08/18 09:12:35;;;;;;;29.40;26.30;;;;;;;25.14;61.48;100826.53;4960937;29;20813;-71
2022/08/18 09:15:39;;;;;;;29.40;26.10;;;;;;;25.00;61.38;100829.03;4944213;28;20558;-70
2022/08/18 09:18:22;;;;;;;26.83;24.23;;;;;;;24.80;62.00;100822.88;4960451;28;20428;-69
2022/08/18 09:21:25;;;;;;;28.43;25.33;;;;;;;25.14;61.63;100829.22;4927497;28;20479;-69
2022/08/18 09:24:01;;;;;;;27.37;24.43;;;;;;;24.70;62.19;100826.91;4947637;29;20456;-70
2022/08/18 09:26:38;;;;;;;26.50;23.90;;;;;;;25.21;61.33;100827.09;4964839;28;20450;-70
2022/08/18 09:29:17;;;;;;;27.20;24.70;;;;;;;24.80;61.61;100822.88;4967210;29;20416;-75
2022/08/18 09:31:44;;;;;;;25.17;22.80;;;;;;;25.84;58.58;100815.00;4974067;28;20443;-74
2022/08/18 09:34:42;;;;;;;26.40;24.00;;;;;;;26.16;56.92;100815.09;4947805;29;20562;-74
2022/08/18 09:37:13;;;;;;;23.90;21.80;;;;;;;26.18;57.78;100814.06;4947103;29;20669;-75
2022/08/18 09:42:37;;;;;;;25.67;23.30;;;;;;;25.93;58.29;100816.31;4963263;28;20444;-71
2022/08/18 09:45:10;;;;;;;26.43;23.87;;;;;;;25.85;58.56;100814.03;4946650;29;20874;-71
2022/08/18 09:47:36;;;;;;;26.73;24.10;;;;;;;26.14;58.31;100823.19;4946740;29;20432;-71
2022/08/18 09:50:04;;;;;;;24.97;22.77;;;;;;;26.22;57.00;100815.63;4963108;28;20413;-70
2022/08/18 09:52:32;;;;;;;26.20;23.37;;;;;;;25.87;58.37;100818.38;4962933;29;20423;-70
2022/08/18 09:54:57;;;;;;;24.70;22.37;;;;;;;25.15;60.17;100825.56;4962886;29;20503;-71
2022/08/18 09:57:34;;;;;;;27.80;25.37;;;;;;;25.83;57.64;100824.81;4963322;28;20862;-68
2022/08/18 10:00:02;;;;;;;25.17;22.93;;;;;;;25.47;58.42;100828.47;4946484;29;20169;-72
2022/08/18 10:02:27;;;;;;;26.67;24.17;;;;;;;25.52;58.58;100822.91;4962943;29;20404;-73
2022/08/18 10:05:16;;;;;;;25.77;23.40;;;;;;;26.47;56.59;100816.94;4962448;29;20838;-73
2022/08/18 10:07:42;;;;;;;25.07;22.67;;;;;;;26.33;56.85;100822.16;4959220;29;20185;-72
2022/08/18 10:10:12;;;;;;;28.03;25.23;;;;;;;25.99;57.22;100830.22;4946414;29;20728;-72
2022/08/18 10:12:50;;;;;;;26.90;24.40;;;;;;;26.96;55.95;100817.78;4945884;29;20864;-72
2022/08/18 10:15:35;;;;;;;26.30;23.63;;;;;;;27.79;52.83;100807.47;4962455;28;20463;-71
2022/08/18 10:18:27;;;;;;;25.30;22.97;;;;;;;27.93;51.86;100800.41;4962481;28;20512;-71
2022/08/18 10:21:06;;;;;;;23.00;21.00;;;;;;;28.05;51.85;100805.06;4962464;29;20417;-70
2022/08/18 10:23:51;;;;;;;26.57;23.90;;;;;;;27.45;53.30;100808.69;4945814;29;20713;-70
2022/08/18 10:26:32;;;;;;;24.20;22.00;;;;;;;27.19;54.03;100811.09;4962195;29;20448;-73
2022/08/18 10:29:07;;;;;;;24.50;22.30;;;;;;;27.55;53.50;100810.72;4962338;29;20416;-74
2022/08/18 10:31:54;;;;;;;24.60;22.13;;;;;;;27.38;53.89;100821.59;4962485;29;20523;-74
2022/08/18 10:34:37;;;;;;;24.50;22.30;;;;;;;27.04;54.68;100819.06;4962153;28;20417;-73
2022/08/18 10:37:17;;;;;;;26.20;23.80;;;;;;;26.48;56.14;100821.34;4945460;29;20417;-74
2022/08/18 10:40:00;;;;;;;25.57;23.13;;;;;;;26.43;56.85;100820.72;4945406;29;20512;-73
2022/08/18 10:42:31;;;;;;;25.67;23.30;;;;;;;26.64;56.14;100815.09;4945328;29;20733;-71
2022/08/18 10:45:19;;;;;;;24.07;21.77;;;;;;;26.64;56.53;100825.81;4961214;29;20464;-73
2022/08/18 10:47:59;;;;;;;24.30;21.87;;;;;;;26.18;57.40;100826.56;4961764;29;20471;-72
2022/08/18 10:50:25;;;;;;;24.97;22.60;;;;;;;27.36;54.53;100828.81;4945343;29;20504;-70
2022/08/18 10:53:12;;;;;;;25.87;23.57;;;;;;;27.60;53.78;100834.53;4945243;28;20744;-70
2022/08/18 10:55:53;;;;;;;23.60;21.50;;;;;;;27.54;53.55;100835.78;4961763;28;20419;-70
2022/08/18 10:58:38;;;;;;;23.60;21.60;;;;;;;28.09;52.45;100830.69;4945220;29;20434;-70
2022/08/18 11:01:34;;;;;;;23.50;21.37;;;;;;;27.55;52.97;100833.97;4961705;28;20420;-68
2022/08/18 11:04:25;;;;;;;23.30;21.20;;;;;;;28.13;52.62;100828.66;4962081;28;20865;-85
2022/08/18 11:06:56;;;;;;;22.97;20.87;;;;;;;27.85;52.10;100830.38;4963125;28;20415;-77
2022/08/18 11:09:25;;;;;;;22.33;20.33;;;;;;;28.72;50.04;100815.09;4961861;29;20413;-77
2022/08/18 11:11:53;;;;;;;22.13;19.93;;;;;;;28.47;50.80;100821.16;4961662;28;20500;-78
2022/08/18 11:14:22;;;;;;;21.17;19.37;;;;;;;27.86;51.66;100822.25;4961540;28;20515;-78
2022/08/18 11:17:16;;;;;;;20.30;18.47;;;;;;;28.46;50.71;100828.34;4947487;28;20467;-81
2022/08/18 11:19:43;;;;;;;20.43;18.73;;;;;;;28.52;50.22;100827.09;4981178;28;20451;-79
2022/08/18 11:22:21;;;;;;;20.53;18.57;;;;;;;28.51;51.25;100830.72;4980269;28;20829;-77
2022/08/18 11:24:46;;;;;;;20.97;19.07;;;;;;;29.10;49.88;100826.94;4982013;28;20467;-81
2022/08/18 11:27:29;;;;;;;18.47;16.80;;;;;;;30.03;48.37;100825.03;4982487;28;20415;-80
2022/08/18 11:29:58;;;;;;;20.13;18.33;;;;;;;30.29;46.69;100811.53;4948777;28;20176;-76
2022/08/18 11:32:29;;;;;;;19.63;17.93;;;;;;;29.05;48.24;100821.84;4980153;28;20431;-76
2022/08/18 11:34:58;;;;;;;17.70;16.30;;;;;;;30.05;47.38;100822.22;4980417;28;20428;-78
2022/08/18 11:37:24;;;;;;;17.50;16.00;;;;;;;29.77;47.25;100817.91;4980227;28;20419;-77
2022/08/18 11:39:52;;;;;;;16.60;15.23;;;;;;;30.66;45.46;100816.06;4980136;28;20419;-77
2022/08/18 11:42:19;;;;;;;16.97;15.20;;;;;;;30.76;44.71;100817.09;4980500;28;20437;-77
2022/08/18 11:44:45;;;;;;;16.40;14.80;;;;;;;29.96;46.92;100825.56;4963517;28;20498;-79
2022/08/18 11:47:17;;;;;;;16.17;14.77;;;;;;;29.39;47.83;100825.00;4980701;28;20742;-84
2022/08/18 11:50:07;;;;;;;17.73;14.10;;;;;;;29.32;47.95;100824.56;4964898;28;20223;-86
2022/08/18 11:52:49;;;;;;;15.50;14.10;;;;;;;30.51;45.24;100813.56;4981325;28;20447;-81